Time;durP1;ratioP1;P1;durP2;ratioP2;P2;SDS_P1;SDS_P2;PMS_P1;PMS_P2;Temp;Humidity;BMP_temperature;BMP_pressure;BME280_temperature;BME280_humidity;BME280_pressure;Samples;Min_cycle;Max_cycle;Signal;HPM_P1;HPM_P2
2023/08/19 00:00:17;;;;;;;24.42;21.45;;;;;;;;;;5026846;28;20057;-71
2023/08/19 00:02:43;;;;;;;25.48;21.88;;;;;;;;;;5025858;28;21771;-70
2023/08/19 00:05:10;;;;;;;25.10;22.38;;;;;;;;;;5027691;28;20119;-70
2023/08/19 00:07:36;;;;;;;22.02;19.80;;;;;;;;;;5029104;28;20044;-71
2023/08/19 00:10:03;;;;;;;24.13;21.27;;;;;;;;;;5029247;28;20032;-70
2023/08/19 00:12:30;;;;;;;23.85;21.52;;;;;;;;;;5030303;28;20040;-70
2023/08/19 00:14:56;;;;;;;23.17;20.77;;;;;;;;;;5027612;28;20036;-70
2023/08/19 00:17:23;;;;;;;24.77;22.10;;;;;;;;;;5029836;28;20029;-70
2023/08/19 00:19:49;;;;;;;23.33;20.92;;;;;;;;;;5030021;28;20129;-70
2023/08/19 00:22:15;;;;;;;22.88;20.40;;;;;;;;;;5012193;28;20076;-71
2023/08/19 00:24:41;;;;;;;26.50;22.73;;;;;;;;;;5010058;28;20127;-70
2023/08/19 00:27:07;;;;;;;22.50;20.17;;;;;;;;;;5009724;28;20045;-70
2023/08/19 00:29:36;;;;;;;24.02;21.27;;;;;;;;;;5007512;28;20040;-70
2023/08/19 00:32:03;;;;;;;23.30;20.92;;;;;;;;;;5010064;28;20079;-71
2023/08/19 00:34:29;;;;;;;23.77;21.00;;;;;;;;;;5008854;28;20037;-70
2023/08/19 00:36:56;;;;;;;23.58;21.17;;;;;;;;;;5008553;28;20022;-70
2023/08/19 00:39:23;;;;;;;24.05;20.38;;;;;;;;;;5008803;28;20595;-70
2023/08/19 00:41:49;;;;;;;22.83;20.42;;;;;;;;;;5008821;28;20744;-70
2023/08/19 00:44:15;;;;;;;23.15;20.55;;;;;;;;;;5009943;28;20381;-70
2023/08/19 00:46:41;;;;;;;22.55;20.13;;;;;;;;;;5007324;28;20041;-70
2023/08/19 00:49:07;;;;;;;24.20;20.52;;;;;;;;;;5009164;28;20686;-70
2023/08/19 00:51:34;;;;;;;22.83;20.63;;;;;;;;;;5009429;28;20051;-70
2023/08/19 00:54:00;;;;;;;23.15;20.60;;;;;;;;;;5010043;28;20122;-70
2023/08/19 00:56:26;;;;;;;21.70;19.25;;;;;;;;;;5010500;28;20993;-70
2023/08/19 00:58:55;;;;;;;23.30;20.98;;;;;;;;;;5008791;28;20025;-70
2023/08/19 01:01:21;;;;;;;22.13;19.85;;;;;;;;;;5009318;28;20389;-70
2023/08/19 01:03:47;;;;;;;23.67;21.23;;;;;;;;;;5007801;28;20171;-71
2023/08/19 01:06:26;;;;;;;22.52;20.30;;;;;;;;;;5005619;28;20037;-71
2023/08/19 01:08:52;;;;;;;22.90;20.58;;;;;;;;;;5006492;28;20030;-71
2023/08/19 01:11:27;;;;;;;23.92;20.83;;;;;;;;;;5005915;28;20044;-71
2023/08/19 01:14:05;;;;;;;23.27;20.80;;;;;;;;;;5006976;28;20024;-70
2023/08/19 01:16:32;;;;;;;23.08;20.08;;;;;;;;;;5007250;28;20071;-70
2023/08/19 01:18:59;;;;;;;22.70;20.20;;;;;;;;;;5006017;28;21033;-70
2023/08/19 01:21:25;;;;;;;23.65;20.05;;;;;;;;;;5009853;28;20122;-70
2023/08/19 01:23:55;;;;;;;22.25;19.95;;;;;;;;;;5009575;28;20126;-70
2023/08/19 01:26:21;;;;;;;22.88;20.58;;;;;;;;;;5010952;28;20104;-70
2023/08/19 01:28:47;;;;;;;21.92;19.73;;;;;;;;;;5009312;28;20037;-70
2023/08/19 01:31:13;;;;;;;29.33;20.17;;;;;;;;;;5010181;28;20041;-70
2023/08/19 01:33:40;;;;;;;23.85;21.42;;;;;;;;;;5010256;28;20037;-70
2023/08/19 01:36:12;;;;;;;22.83;20.52;;;;;;;;;;5007814;28;20839;-70
2023/08/19 01:38:51;;;;;;;26.10;19.93;;;;;;;;;;5009998;28;20029;-70
2023/08/19 01:41:20;;;;;;;21.40;19.20;;;;;;;;;;5009559;28;20351;-70
2023/08/19 01:43:46;;;;;;;23.50;19.45;;;;;;;;;;5009927;28;20033;-71
2023/08/19 01:46:12;;;;;;;22.70;20.30;;;;;;;;;;5009592;28;20039;-70
2023/08/19 01:48:38;;;;;;;20.98;18.83;;;;;;;;;;5011135;28;20052;-70
2023/08/19 01:51:04;;;;;;;20.17;18.08;;;;;;;;;;5010181;28;20046;-70
2023/08/19 01:53:30;;;;;;;22.33;20.02;;;;;;;;;;5009343;28;20033;-70
2023/08/19 01:55:56;;;;;;;19.95;17.83;;;;;;;;;;5024971;28;20041;-70
2023/08/19 01:58:22;;;;;;;20.58;18.45;;;;;;;;;;5009368;28;20140;-70
2023/08/19 02:00:48;;;;;;;23.50;19.75;;;;;;;;;;5009531;28;20139;-70
2023/08/19 02:03:14;;;;;;;23.52;20.50;;;;;;;;;;5009943;28;20128;-70
2023/08/19 02:05:41;;;;;;;21.52;19.25;;;;;;;;;;5009040;28;20128;-70
2023/08/19 02:08:07;;;;;;;21.70;19.55;;;;;;;;;;5011846;28;20052;-70
2023/08/19 02:10:33;;;;;;;22.02;19.75;;;;;;;;;;5011926;28;20037;-70
2023/08/19 02:12:59;;;;;;;21.38;19.08;;;;;;;;;;5012902;28;20033;-70
2023/08/19 02:15:25;;;;;;;25.67;20.42;;;;;;;;;;5012619;28;20599;-71
2023/08/19 02:17:52;;;;;;;21.63;19.33;;;;;;;;;;5012836;28;20041;-71
2023/08/19 02:20:18;;;;;;;22.08;19.73;;;;;;;;;;5026380;28;20163;-70
2023/08/19 02:22:44;;;;;;;21.77;19.58;;;;;;;;;;5012349;28;20053;-70
2023/08/19 02:25:10;;;;;;;20.08;18.08;;;;;;;;;;5011444;28;20042;-70
2023/08/19 02:27:40;;;;;;;20.75;18.58;;;;;;;;;;5013260;28;20033;-70
2023/08/19 02:30:06;;;;;;;21.38;19.15;;;;;;;;;;5012420;28;20047;-70
2023/08/19 02:32:32;;;;;;;20.48;18.38;;;;;;;;;;5011534;28;20100;-70
2023/08/19 02:35:01;;;;;;;21.02;18.83;;;;;;;;;;5012022;28;20033;-71
2023/08/19 02:37:27;;;;;;;20.95;18.75;;;;;;;;;;5012015;28;20035;-70
2023/08/19 02:39:53;;;;;;;23.75;21.33;;;;;;;;;;5012031;28;20045;-70
2023/08/19 02:42:19;;;;;;;20.52;18.33;;;;;;;;;;5012755;28;20075;-70
2023/08/19 02:44:45;;;;;;;20.70;18.48;;;;;;;;;;5010958;28;20021;-70
2023/08/19 02:47:11;;;;;;;21.23;19.00;;;;;;;;;;5011333;28;20053;-70
2023/08/19 02:49:37;;;;;;;21.15;18.85;;;;;;;;;;5010599;28;20033;-70
2023/08/19 02:52:04;;;;;;;21.90;19.73;;;;;;;;;;5025126;28;21665;-71
2023/08/19 02:54:30;;;;;;;21.73;19.50;;;;;;;;;;5009316;28;20040;-69
2023/08/19 02:56:56;;;;;;;21.88;19.02;;;;;;;;;;5010208;28;20047;-70
2023/08/19 02:59:22;;;;;;;22.35;20.02;;;;;;;;;;5011937;28;20041;-71
2023/08/19 03:01:48;;;;;;;20.60;18.42;;;;;;;;;;5011502;28;20037;-71
2023/08/19 03:04:14;;;;;;;21.48;19.33;;;;;;;;;;5011210;28;20082;-71
2023/08/19 03:06:41;;;;;;;23.13;19.95;;;;;;;;;;5008424;28;20045;-71
2023/08/19 03:09:07;;;;;;;22.60;20.40;;;;;;;;;;5007812;28;20044;-70
2023/08/19 03:11:33;;;;;;;21.33;19.13;;;;;;;;;;5007943;28;20044;-71
2023/08/19 03:14:00;;;;;;;22.05;19.70;;;;;;;;;;5007524;28;20753;-70
2023/08/19 03:16:26;;;;;;;21.77;18.25;;;;;;;;;;5008260;28;20033;-70
2023/08/19 03:18:52;;;;;;;21.38;18.60;;;;;;;;;;5007622;28;20037;-70
2023/08/19 03:21:18;;;;;;;21.60;19.50;;;;;;;;;;5006344;28;20041;-70
2023/08/19 03:23:44;;;;;;;22.38;19.02;;;;;;;;;;5008117;28;20118;-70
2023/08/19 03:26:10;;;;;;;22.90;20.48;;;;;;;;;;5008018;28;20191;-70
2023/08/19 03:28:36;;;;;;;22.98;19.27;;;;;;;;;;5008574;28;20043;-70
2023/08/19 03:31:09;;;;;;;22.33;18.98;;;;;;;;;;5006601;28;20033;-71
2023/08/19 03:33:35;;;;;;;24.00;19.15;;;;;;;;;;5008255;28;20135;-70
2023/08/19 03:36:01;;;;;;;23.83;19.75;;;;;;;;;;5007724;28;20037;-70
2023/08/19 03:38:27;;;;;;;23.08;20.60;;;;;;;;;;5008147;28;20033;-70
2023/08/19 03:40:53;;;;;;;23.30;19.88;;;;;;;;;;5007948;28;20104;-70
2023/08/19 03:43:19;;;;;;;23.83;21.33;;;;;;;;;;5006911;28;21626;-70
2023/08/19 03:45:45;;;;;;;24.65;20.25;;;;;;;;;;5007559;28;20494;-71
2023/08/19 03:48:12;;;;;;;24.13;21.38;;;;;;;;;;5006118;28;20041;-70
2023/08/19 03:50:38;;;;;;;22.83;19.92;;;;;;;;;;5007655;28;20059;-70
2023/08/19 03:53:04;;;;;;;22.40;20.00;;;;;;;;;;5006940;28;20052;-70
2023/08/19 03:55:31;;;;;;;22.45;20.13;;;;;;;;;;5007663;28;20044;-70
2023/08/19 03:57:57;;;;;;;22.27;19.98;;;;;;;;;;5006586;28;20127;-70
2023/08/19 04:00:23;;;;;;;25.30;19.77;;;;;;;;;;5008039;28;20551;-70
2023/08/19 04:02:49;;;;;;;21.92;19.73;;;;;;;;;;5007590;28;20986;-70
2023/08/19 04:05:15;;;;;;;23.95;19.70;;;;;;;;;;5008382;28;20072;-70
2023/08/19 04:07:42;;;;;;;22.05;19.35;;;;;;;;;;5011304;28;20033;-70
2023/08/19 04:10:08;;;;;;;22.63;19.55;;;;;;;;;;5011446;28;20511;-70
2023/08/19 04:12:34;;;;;;;23.58;19.10;;;;;;;;;;5010716;28;20749;-70
2023/08/19 04:15:00;;;;;;;22.75;20.40;;;;;;;;;;5010118;28;20031;-71
2023/08/19 04:17:26;;;;;;;20.83;18.65;;;;;;;;;;5009956;28;20400;-70
2023/08/19 04:19:53;;;;;;;20.23;18.15;;;;;;;;;;5025216;28;20026;-70
2023/08/19 04:22:19;;;;;;;21.45;19.00;;;;;;;;;;5008788;28;20049;-70
2023/08/19 04:24:52;;;;;;;22.70;19.33;;;;;;;;;;5011364;28;20749;-70
2023/08/19 04:27:18;;;;;;;24.70;19.88;;;;;;;;;;5010535;28;20083;-71
2023/08/19 04:29:44;;;;;;;22.98;19.30;;;;;;;;;;5011191;28;20037;-70
2023/08/19 04:32:10;;;;;;;20.27;18.10;;;;;;;;;;5009853;28;20037;-70
2023/08/19 04:34:36;;;;;;;21.50;19.30;;;;;;;;;;5010431;28;20036;-70
2023/08/19 04:37:03;;;;;;;20.77;18.40;;;;;;;;;;5010773;28;20118;-70
2023/08/19 04:39:29;;;;;;;20.60;18.38;;;;;;;;;;5009190;28;20111;-70
2023/08/19 04:41:55;;;;;;;20.20;18.05;;;;;;;;;;5010742;28;20088;-71
2023/08/19 04:44:21;;;;;;;20.45;18.25;;;;;;;;;;5010432;28;20044;-70
2023/08/19 04:46:47;;;;;;;17.95;16.13;;;;;;;;;;5015202;28;20761;-70
2023/08/19 04:49:13;;;;;;;21.33;18.38;;;;;;;;;;5010067;28;20916;-70
2023/08/19 04:51:39;;;;;;;19.35;16.70;;;;;;;;;;5007134;28;20037;-70
2023/08/19 04:54:06;;;;;;;19.42;17.40;;;;;;;;;;5007351;28;20119;-70
2023/08/19 04:56:32;;;;;;;19.60;17.55;;;;;;;;;;5012818;28;20041;-70
2023/08/19 04:59:00;;;;;;;18.48;16.13;;;;;;;;;;5012726;28;20034;-70
2023/08/19 05:01:26;;;;;;;20.23;18.05;;;;;;;;;;5011124;28;20029;-69
2023/08/19 05:03:53;;;;;;;22.15;18.00;;;;;;;;;;5011366;28;20029;-70
2023/08/19 05:06:19;;;;;;;19.58;15.85;;;;;;;;;;5010212;28;20144;-70
2023/08/19 05:08:45;;;;;;;19.42;16.65;;;;;;;;;;5009123;28;20152;-70
2023/08/19 05:11:11;;;;;;;17.25;15.35;;;;;;;;;;5009907;28;20033;-70
2023/08/19 05:13:37;;;;;;;20.25;16.48;;;;;;;;;;5011039;28;20029;-70
2023/08/19 05:16:04;;;;;;;18.70;16.80;;;;;;;;;;5010202;28;20044;-70
2023/08/19 05:18:30;;;;;;;17.23;14.93;;;;;;;;;;5010988;28;20091;-70
2023/08/19 05:20:56;;;;;;;16.63;14.57;;;;;;;;;;5009414;28;20040;-70
2023/08/19 05:23:22;;;;;;;20.45;16.42;;;;;;;;;;5008133;28;20033;-70
2023/08/19 05:25:48;;;;;;;18.52;14.93;;;;;;;;;;5007859;28;20107;-70
2023/08/19 05:28:15;;;;;;;16.70;14.90;;;;;;;;;;5007478;28;20091;-70
2023/08/19 05:30:41;;;;;;;19.52;15.18;;;;;;;;;;5009927;28;20064;-70
2023/08/19 05:33:07;;;;;;;16.88;14.75;;;;;;;;;;5008557;28;20215;-70
2023/08/19 05:35:33;;;;;;;16.73;14.88;;;;;;;;;;5008690;28;20029;-71
2023/08/19 05:37:59;;;;;;;17.88;15.98;;;;;;;;;;5008427;28;20029;-70
2023/08/19 05:40:25;;;;;;;16.90;15.10;;;;;;;;;;5008990;28;20040;-70
2023/08/19 05:42:51;;;;;;;18.92;14.45;;;;;;;;;;5008702;28;20451;-70
2023/08/19 05:45:20;;;;;;;16.05;14.38;;;;;;;;;;5007750;28;20408;-71
2023/08/19 05:47:46;;;;;;;17.60;15.45;;;;;;;;;;5009087;28;20041;-70
2023/08/19 05:50:12;;;;;;;17.35;14.25;;;;;;;;;;5006696;28;20037;-70
2023/08/19 05:52:38;;;;;;;17.15;14.60;;;;;;;;;;5009218;28;20049;-70
2023/08/19 05:55:05;;;;;;;27.02;15.20;;;;;;;;;;5008097;28;20042;-70
2023/08/19 05:57:31;;;;;;;17.55;14.30;;;;;;;;;;5009414;28;20039;-70
2023/08/19 05:59:57;;;;;;;22.58;14.35;;;;;;;;;;5008646;28;20041;-70
2023/08/19 06:02:23;;;;;;;15.15;13.55;;;;;;;;;;5008249;28;20102;-70
2023/08/19 06:04:49;;;;;;;16.40;13.85;;;;;;;;;;5008145;28;20057;-70
2023/08/19 06:07:21;;;;;;;15.77;14.10;;;;;;;;;;5010592;28;20361;-70
2023/08/19 06:09:47;;;;;;;16.15;13.27;;;;;;;;;;5012006;28;20028;-70
2023/08/19 06:12:13;;;;;;;20.90;14.60;;;;;;;;;;5011477;28;20036;-70
2023/08/19 06:14:39;;;;;;;17.92;13.85;;;;;;;;;;5011382;28;20033;-70
2023/08/19 06:17:05;;;;;;;16.80;13.40;;;;;;;;;;5009999;28;20033;-70
2023/08/19 06:19:31;;;;;;;14.30;12.15;;;;;;;;;;5011003;28;20045;-70
2023/08/19 06:21:57;;;;;;;14.27;12.77;;;;;;;;;;5009670;28;20072;-71
2023/08/19 06:24:23;;;;;;;14.25;12.70;;;;;;;;;;5011692;28;20420;-71
2023/08/19 06:26:49;;;;;;;15.07;13.18;;;;;;;;;;5011236;28;21621;-71
2023/08/19 06:29:15;;;;;;;16.58;12.45;;;;;;;;;;5011967;28;20029;-71
2023/08/19 06:31:42;;;;;;;15.15;12.15;;;;;;;;;;5010763;28;20034;-70
2023/08/19 06:34:08;;;;;;;20.27;12.43;;;;;;;;;;5012443;28;20037;-70
2023/08/19 06:36:34;;;;;;;15.25;12.50;;;;;;;;;;5008169;28;20811;-70
2023/08/19 06:39:04;;;;;;;13.82;11.55;;;;;;;;;;5009896;28;20123;-70
2023/08/19 06:41:34;;;;;;;15.02;12.48;;;;;;;;;;5026190;28;21188;-70
2023/08/19 06:44:01;;;;;;;14.77;12.43;;;;;;;;;;5011627;28;20032;-70
2023/08/19 06:46:28;;;;;;;17.90;12.63;;;;;;;;;;5010632;28;20103;-70
2023/08/19 06:48:54;;;;;;;14.68;12.50;;;;;;;;;;5010244;28;20043;-70
2023/08/19 06:51:21;;;;;;;14.07;12.60;;;;;;;;;;5010403;28;20041;-70
2023/08/19 06:53:47;;;;;;;15.57;11.75;;;;;;;;;;5011466;28;20041;-70
2023/08/19 06:56:24;;;;;;;17.30;11.55;;;;;;;;;;5025446;28;20055;-70
2023/08/19 06:58:55;;;;;;;14.80;11.93;;;;;;;;;;5009743;28;20053;-70
2023/08/19 07:01:25;;;;;;;15.25;12.05;;;;;;;;;;5009795;28;20017;-70
2023/08/19 07:03:52;;;;;;;15.65;11.25;;;;;;;;;;5008640;28;20040;-70
2023/08/19 07:06:20;;;;;;;14.05;11.57;;;;;;;;;;5003669;28;20846;-70
2023/08/19 07:08:46;;;;;;;14.98;11.80;;;;;;;;;;5005622;28;20594;-70
2023/08/19 07:11:12;;;;;;;15.48;10.93;;;;;;;;;;5006889;28;20037;-70
2023/08/19 07:13:39;;;;;;;20.10;12.10;;;;;;;;;;5005922;28;21257;-70
2023/08/19 07:16:05;;;;;;;14.05;10.82;;;;;;;;;;5006000;28;20041;-69
2023/08/19 07:18:35;;;;;;;11.38;10.13;;;;;;;;;;5005742;28;20037;-70
2023/08/19 07:21:02;;;;;;;13.70;10.98;;;;;;;;;;5005924;28;20150;-70
2023/08/19 07:23:28;;;;;;;15.50;10.27;;;;;;;;;;5006724;28;20376;-70
2023/08/19 07:25:55;;;;;;;12.60;9.40;;;;;;;;;;4985521;28;20048;-69
2023/08/19 07:28:23;;;;;;;12.10;9.35;;;;;;;;;;5000236;28;20044;-70
2023/08/19 07:30:50;;;;;;;12.60;9.55;;;;;;;;;;5000220;28;20075;-70
2023/08/19 07:33:16;;;;;;;13.88;9.82;;;;;;;;;;5000047;28;20041;-70
2023/08/19 07:35:42;;;;;;;13.52;9.27;;;;;;;;;;5000554;28;20032;-70
2023/08/19 07:38:09;;;;;;;11.60;9.00;;;;;;;;;;5001841;28;20877;-70
2023/08/19 07:40:35;;;;;;;11.20;9.18;;;;;;;;;;5001207;28;21871;-70
2023/08/19 07:43:03;;;;;;;14.20;9.70;;;;;;;;;;5001575;28;20037;-70
2023/08/19 07:45:30;;;;;;;11.18;9.30;;;;;;;;;;5001393;28;20093;-70
2023/08/19 07:47:56;;;;;;;13.48;9.10;;;;;;;;;;5002698;28;20433;-70
2023/08/19 07:50:22;;;;;;;11.40;9.18;;;;;;;;;;5005009;28;21878;-70
2023/08/19 07:52:48;;;;;;;10.57;8.75;;;;;;;;;;5002563;28;20175;-70
2023/08/19 07:55:14;;;;;;;12.02;9.10;;;;;;;;;;5002373;28;20033;-70
2023/08/19 07:57:40;;;;;;;10.20;8.88;;;;;;;;;;5002102;28;21017;-70
2023/08/19 08:00:07;;;;;;;13.45;9.30;;;;;;;;;;5003641;28;20142;-70
2023/08/19 08:02:33;;;;;;;12.90;8.98;;;;;;;;;;5000455;28;20765;-70
2023/08/19 08:04:59;;;;;;;19.38;10.02;;;;;;;;;;4982578;28;20033;-70
2023/08/19 08:07:25;;;;;;;11.57;8.38;;;;;;;;;;5001554;28;20040;-69
2023/08/19 08:09:51;;;;;;;12.20;9.40;;;;;;;;;;5001721;28;20954;-70
2023/08/19 08:12:17;;;;;;;11.90;9.10;;;;;;;;;;5001140;28;21444;-70
2023/08/19 08:14:43;;;;;;;10.35;8.35;;;;;;;;;;4983254;28;20037;-70
2023/08/19 08:17:10;;;;;;;12.93;8.43;;;;;;;;;;5002445;28;20032;-70
2023/08/19 08:19:36;;;;;;;10.98;8.27;;;;;;;;;;5002231;28;20061;-70
2023/08/19 08:22:02;;;;;;;9.80;7.72;;;;;;;;;;5000458;28;20040;-70
2023/08/19 08:24:31;;;;;;;11.10;8.38;;;;;;;;;;5002482;28;20063;-70
2023/08/19 08:27:00;;;;;;;15.82;8.23;;;;;;;;;;5000973;28;20037;-70
2023/08/19 08:29:26;;;;;;;10.27;7.78;;;;;;;;;;5002630;28;20092;-70
2023/08/19 08:31:53;;;;;;;12.73;8.27;;;;;;;;;;5006139;28;20152;-70
2023/08/19 08:34:19;;;;;;;13.52;8.02;;;;;;;;;;5005175;28;20203;-70
2023/08/19 08:36:45;;;;;;;11.95;7.82;;;;;;;;;;5005285;28;20029;-70
2023/08/19 08:39:11;;;;;;;9.63;7.50;;;;;;;;;;5020027;28;20039;-70
2023/08/19 08:41:42;;;;;;;10.55;7.53;;;;;;;;;;5005279;28;20078;-70
2023/08/19 08:44:08;;;;;;;11.73;7.57;;;;;;;;;;5005316;28;20028;-70
2023/08/19 08:46:35;;;;;;;12.95;7.45;;;;;;;;;;5005063;28;20045;-70
2023/08/19 08:49:01;;;;;;;10.80;7.20;;;;;;;;;;5004216;28;20037;-70
2023/08/19 08:51:28;;;;;;;8.55;6.75;;;;;;;;;;5004287;28;20041;-70
2023/08/19 08:53:56;;;;;;;10.98;7.00;;;;;;;;;;5005548;28;20037;-70
2023/08/19 08:56:23;;;;;;;10.27;6.78;;;;;;;;;;5003486;28;20053;-69
2023/08/19 08:58:50;;;;;;;9.88;6.40;;;;;;;;;;5001902;28;20130;-70
2023/08/19 09:01:18;;;;;;;10.48;6.70;;;;;;;;;;5004360;28;20025;-69
2023/08/19 09:03:46;;;;;;;9.57;6.47;;;;;;;;;;5003311;28;20041;-69
2023/08/19 09:06:16;;;;;;;9.60;5.97;;;;;;;;;;5005686;28;20560;-70
2023/08/19 09:09:14;;;;;;;8.18;6.10;;;;;;;;;;5003248;28;20059;-70
2023/08/19 09:11:42;;;;;;;10.68;5.55;;;;;;;;;;4986001;28;20041;-70
2023/08/19 09:14:14;;;;;;;8.27;5.60;;;;;;;;;;5003013;28;20040;-70
2023/08/19 09:16:40;;;;;;;10.75;6.30;;;;;;;;;;5003513;28;20045;-70
2023/08/19 09:19:06;;;;;;;8.55;5.78;;;;;;;;;;5003703;28;20552;-70
2023/08/19 09:21:33;;;;;;;9.75;6.50;;;;;;;;;;5004990;28;20041;-70
2023/08/19 09:23:59;;;;;;;9.50;6.30;;;;;;;;;;5004830;28;20033;-70
2023/08/19 09:26:25;;;;;;;8.60;6.30;;;;;;;;;;5003790;28;20108;-70
2023/08/19 09:28:56;;;;;;;8.90;6.10;;;;;;;;;;5004965;28;20043;-70
2023/08/19 09:31:24;;;;;;;9.68;5.70;;;;;;;;;;5003683;28;20039;-70
2023/08/19 09:33:50;;;;;;;8.15;6.07;;;;;;;;;;5003908;28;20037;-71
2023/08/19 09:36:16;;;;;;;9.05;5.47;;;;;;;;;;5004257;28;20033;-70
2023/08/19 09:38:43;;;;;;;8.32;6.30;;;;;;;;;;5007526;28;20032;-70
2023/08/19 09:41:10;;;;;;;11.30;6.28;;;;;;;;;;5007862;28;20040;-69
2023/08/19 09:43:40;;;;;;;9.07;5.72;;;;;;;;;;5009408;28;20021;-70
2023/08/19 09:46:06;;;;;;;9.20;5.50;;;;;;;;;;5010377;28;20031;-71
2023/08/19 09:48:33;;;;;;;10.35;5.70;;;;;;;;;;5009484;28;20074;-70
2023/08/19 09:50:59;;;;;;;8.50;5.30;;;;;;;;;;5010516;28;20029;-71
2023/08/19 09:53:28;;;;;;;8.98;5.70;;;;;;;;;;5009887;28;20040;-70
2023/08/19 09:55:54;;;;;;;9.25;6.15;;;;;;;;;;5009429;28;21919;-70
2023/08/19 09:58:20;;;;;;;9.18;5.47;;;;;;;;;;5010337;28;20826;-70
2023/08/19 10:00:46;;;;;;;9.43;5.50;;;;;;;;;;5010106;28;20026;-70
2023/08/19 10:03:13;;;;;;;8.80;5.18;;;;;;;;;;5010528;28;20040;-71
2023/08/19 10:05:40;;;;;;;8.30;5.35;;;;;;;;;;5009594;28;20029;-71
2023/08/19 10:08:11;;;;;;;7.63;5.38;;;;;;;;;;5013130;28;20029;-70
2023/08/19 10:10:42;;;;;;;10.05;5.30;;;;;;;;;;5013089;28;20894;-71
2023/08/19 10:13:09;;;;;;;7.45;5.70;;;;;;;;;;5013787;28;20029;-70
2023/08/19 10:15:38;;;;;;;8.13;5.40;;;;;;;;;;5013249;28;20074;-71
2023/08/19 10:18:07;;;;;;;8.50;5.40;;;;;;;;;;5013363;28;20033;-70
2023/08/19 10:20:34;;;;;;;12.75;5.65;;;;;;;;;;5028018;28;20365;-70
2023/08/19 10:23:02;;;;;;;9.27;5.50;;;;;;;;;;5012932;28;20625;-70
2023/08/19 10:25:30;;;;;;;9.27;5.35;;;;;;;;;;5012370;28;20693;-70
2023/08/19 10:28:06;;;;;;;9.38;6.07;;;;;;;;;;5012845;28;20040;-71
2023/08/19 10:30:32;;;;;;;10.93;6.43;;;;;;;;;;5012960;28;20040;-71
2023/08/19 10:33:05;;;;;;;8.50;6.47;;;;;;;;;;5012409;28;20040;-70
2023/08/19 10:35:50;;;;;;;10.30;6.72;;;;;;;;;;5012099;28;20033;-70
2023/08/19 10:38:16;;;;;;;16.63;7.13;;;;;;;;;;5011290;28;20032;-71
2023/08/19 10:40:42;;;;;;;10.38;7.30;;;;;;;;;;5012293;28;20057;-70
2023/08/19 10:43:08;;;;;;;10.43;7.40;;;;;;;;;;5013330;28;20037;-70
2023/08/19 10:45:35;;;;;;;10.95;7.40;;;;;;;;;;5012808;28;20047;-70
2023/08/19 10:48:02;;;;;;;11.32;7.35;;;;;;;;;;5012685;28;21775;-70
2023/08/19 10:50:35;;;;;;;10.02;7.75;;;;;;;;;;5013072;28;20033;-70
2023/08/19 10:53:03;;;;;;;9.93;7.65;;;;;;;;;;5011165;28;20037;-70
2023/08/19 10:55:49;;;;;;;11.23;8.35;;;;;;;;;;5012425;28;20997;-70
2023/08/19 10:58:15;;;;;;;10.20;7.25;;;;;;;;;;5011933;28;20428;-70
2023/08/19 11:00:42;;;;;;;12.57;8.30;;;;;;;;;;5012929;28;20521;-70
2023/08/19 11:03:08;;;;;;;11.60;8.38;;;;;;;;;;5012017;28;20175;-70
2023/08/19 11:05:34;;;;;;;13.88;8.15;;;;;;;;;;5009097;28;20041;-71
2023/08/19 11:08:00;;;;;;;11.85;7.55;;;;;;;;;;5008030;28;20044;-70
2023/08/19 11:10:32;;;;;;;11.40;8.50;;;;;;;;;;5005379;28;21711;-69
2023/08/19 11:13:00;;;;;;;14.38;8.57;;;;;;;;;;5006007;28;20032;-69
2023/08/19 11:15:26;;;;;;;13.02;8.27;;;;;;;;;;5006373;28;20040;-69
2023/08/19 11:17:52;;;;;;;11.15;8.55;;;;;;;;;;5006590;28;20147;-69
2023/08/19 11:20:19;;;;;;;18.48;9.05;;;;;;;;;;5005386;28;20671;-69
2023/08/19 11:22:50;;;;;;;10.73;8.43;;;;;;;;;;5007878;28;20052;-70
2023/08/19 11:25:16;;;;;;;10.82;8.05;;;;;;;;;;5008414;28;20427;-70
2023/08/19 11:27:43;;;;;;;10.45;8.55;;;;;;;;;;5007998;28;20136;-69
2023/08/19 11:30:10;;;;;;;14.63;9.32;;;;;;;;;;5012401;28;20036;-70
2023/08/19 11:32:36;;;;;;;12.63;10.05;;;;;;;;;;5007394;28;20029;-70
2023/08/19 11:35:03;;;;;;;12.55;9.45;;;;;;;;;;5007706;28;20040;-70
2023/08/19 11:37:29;;;;;;;17.38;11.52;;;;;;;;;;5007652;28;20030;-70
2023/08/19 11:39:55;;;;;;;14.68;11.07;;;;;;;;;;5008068;28;20710;-70
2023/08/19 11:42:21;;;;;;;13.77;10.38;;;;;;;;;;5008184;28;20029;-70
2023/08/19 11:44:47;;;;;;;15.25;11.88;;;;;;;;;;5007798;28;20048;-70
2023/08/19 11:47:14;;;;;;;20.45;14.18;;;;;;;;;;5007619;28;20087;-70
2023/08/19 11:49:43;;;;;;;15.63;13.48;;;;;;;;;;5007495;28;20108;-69
2023/08/19 11:52:18;;;;;;;19.17;14.43;;;;;;;;;;5006946;28;20118;-70
2023/08/19 11:54:57;;;;;;;15.73;13.63;;;;;;;;;;5007519;28;20075;-70
2023/08/19 11:57:23;;;;;;;17.95;16.05;;;;;;;;;;5008626;28;20946;-70
2023/08/19 11:59:49;;;;;;;19.05;15.93;;;;;;;;;;5007804;28;20705;-70
2023/08/19 12:02:15;;;;;;;18.13;14.38;;;;;;;;;;5006436;28;20043;-70
2023/08/19 12:04:41;;;;;;;19.25;17.25;;;;;;;;;;5007360;28;20179;-70
2023/08/19 12:07:12;;;;;;;16.88;15.07;;;;;;;;;;5010160;28;20373;-70
2023/08/19 12:09:40;;;;;;;20.00;16.80;;;;;;;;;;5009946;28;20068;-70
2023/08/19 12:12:10;;;;;;;19.35;17.30;;;;;;;;;;5010175;28;20128;-70
2023/08/19 12:14:37;;;;;;;24.98;21.17;;;;;;;;;;5009604;28;20499;-69
2023/08/19 12:17:04;;;;;;;21.85;19.58;;;;;;;;;;5009785;28;20715;-69
2023/08/19 12:19:30;;;;;;;28.08;23.00;;;;;;;;;;5011134;28;20033;-69
2023/08/19 12:21:56;;;;;;;30.17;26.90;;;;;;;;;;5010483;28;20099;-69
2023/08/19 12:24:23;;;;;;;31.55;28.17;;;;;;;;;;5019828;28;20044;-70
2023/08/19 12:26:49;;;;;;;34.25;30.58;;;;;;;;;;5011132;28;20159;-69
2023/08/19 12:29:15;;;;;;;38.00;31.77;;;;;;;;;;5009949;28;20124;-69
2023/08/19 12:31:41;;;;;;;48.85;35.97;;;;;;;;;;5026141;28;20033;-69
2023/08/19 12:34:07;;;;;;;43.10;33.92;;;;;;;;;;5010157;28;20044;-69
2023/08/19 12:36:33;;;;;;;45.10;34.55;;;;;;;;;;5010366;28;20040;-69
2023/08/19 12:38:59;;;;;;;46.95;34.83;;;;;;;;;;5010153;28;20037;-69
2023/08/19 12:41:25;;;;;;;43.55;33.75;;;;;;;;;;5010261;28;20460;-70
2023/08/19 12:43:52;;;;;;;41.47;29.95;;;;;;;;;;5009788;28;20176;-69
2023/08/19 12:46:18;;;;;;;37.08;28.88;;;;;;;;;;5009198;28;20068;-70
2023/08/19 12:48:44;;;;;;;38.78;28.70;;;;;;;;;;5010051;28;20075;-70
2023/08/19 12:51:10;;;;;;;36.75;27.45;;;;;;;;;;5008377;28;20083;-70
2023/08/19 12:53:36;;;;;;;30.65;24.95;;;;;;;;;;5010089;28;20600;-69
2023/08/19 12:56:03;;;;;;;33.10;25.40;;;;;;;;;;5009997;28;20568;-70
2023/08/19 12:58:29;;;;;;;31.67;22.48;;;;;;;;;;5009678;28;20201;-70
2023/08/19 13:00:56;;;;;;;16.40;10.82;;;;;;;;;;5010927;28;20140;-70
2023/08/19 13:03:22;;;;;;;10.90;6.50;;;;;;;;;;5010810;28;20032;-70
2023/08/19 13:05:48;;;;;;;10.00;6.43;;;;;;;;;;5006697;28;20025;-70
2023/08/19 13:08:14;;;;;;;11.23;6.95;;;;;;;;;;5007725;28;20044;-69
2023/08/19 13:10:40;;;;;;;10.55;5.95;;;;;;;;;;5006495;28;20033;-70
2023/08/19 13:13:06;;;;;;;12.05;7.28;;;;;;;;;;5007170;28;20063;-69
2023/08/19 13:15:32;;;;;;;12.45;8.25;;;;;;;;;;5008525;28;20029;-70
2023/08/19 13:17:58;;;;;;;11.07;7.70;;;;;;;;;;5010463;28;20037;-70
2023/08/19 13:20:26;;;;;;;16.77;9.18;;;;;;;;;;5008720;28;20028;-70
2023/08/19 13:22:52;;;;;;;15.20;9.50;;;;;;;;;;5008955;28;20053;-70
2023/08/19 13:25:18;;;;;;;12.23;8.98;;;;;;;;;;5010133;28;20548;-70
2023/08/19 13:27:47;;;;;;;12.80;9.55;;;;;;;;;;5008690;28;20026;-70
2023/08/19 13:30:13;;;;;;;16.63;10.18;;;;;;;;;;5010424;28;20730;-70
2023/08/19 13:32:40;;;;;;;17.20;12.10;;;;;;;;;;5010801;28;20039;-69
2023/08/19 13:35:06;;;;;;;16.45;11.68;;;;;;;;;;5011151;28;20469;-70
2023/08/19 13:37:33;;;;;;;16.27;11.30;;;;;;;;;;5011013;28;20029;-70
2023/08/19 13:39:59;;;;;;;18.45;11.05;;;;;;;;;;5011131;28;21365;-70
2023/08/19 13:42:25;;;;;;;14.82;9.25;;;;;;;;;;5010893;28;20029;-70
2023/08/19 13:44:51;;;;;;;9.13;6.32;;;;;;;;;;5010794;28;20163;-70
2023/08/19 13:47:17;;;;;;;9.05;5.63;;;;;;;;;;5010435;28;20095;-70
2023/08/19 13:49:43;;;;;;;8.73;5.30;;;;;;;;;;5009598;28;20033;-69
2023/08/19 13:52:29;;;;;;;14.43;5.50;;;;;;;;;;5025154;28;20041;-70
2023/08/19 13:54:55;;;;;;;10.68;4.30;;;;;;;;;;5009067;28;20024;-70
2023/08/19 13:57:21;;;;;;;8.48;4.10;;;;;;;;;;5023476;28;20091;-70
2023/08/19 13:59:47;;;;;;;10.52;4.80;;;;;;;;;;4999071;28;20033;-70
2023/08/19 14:02:13;;;;;;;8.27;4.20;;;;;;;;;;5003146;28;20048;-70
2023/08/19 14:04:39;;;;;;;8.82;4.50;;;;;;;;;;5001728;28;20148;-70
2023/08/19 14:07:06;;;;;;;9.43;4.47;;;;;;;;;;5004281;28;20544;-70
2023/08/19 14:09:32;;;;;;;8.85;4.63;;;;;;;;;;5021414;28;20050;-70
2023/08/19 14:11:58;;;;;;;10.80;5.00;;;;;;;;;;5006528;28;20041;-70
2023/08/19 14:14:24;;;;;;;9.32;3.83;;;;;;;;;;5006456;28;20037;-70
2023/08/19 14:16:54;;;;;;;12.23;4.78;;;;;;;;;;5005692;28;20030;-69
2023/08/19 14:19:20;;;;;;;12.32;4.85;;;;;;;;;;5006108;28;20707;-70
2023/08/19 14:21:46;;;;;;;8.45;4.15;;;;;;;;;;5006442;28;20041;-70